sensor_id;sensor_type;location;lat;lon;timestamp;P1;durP1;ratioP1;P2;durP2;ratioP2
34924;SDS011;21130;51.728;8.748;2024-02-28T00:00:43;61.05;;;31.85;;
34924;SDS011;21130;51.728;8.748;2024-02-28T00:03:10;63.22;;;32.22;;
34924;SDS011;21130;51.728;8.748;2024-02-28T00:05:37;60.83;;;33.67;;
34924;SDS011;21130;51.728;8.748;2024-02-28T00:08:04;58.25;;;32.90;;
34924;SDS011;21130;51.728;8.748;2024-02-28T00:10:33;61.08;;;33.53;;
34924;SDS011;21130;51.728;8.748;2024-02-28T00:12:59;70.40;;;34.28;;
34924;SDS011;21130;51.728;8.748;2024-02-28T00:15:25;67.15;;;34.25;;
34924;SDS011;21130;51.728;8.748;2024-02-28T00:17:52;65.55;;;34.58;;
34924;SDS011;21130;51.728;8.748;2024-02-28T00:20:19;63.25;;;33.17;;
34924;SDS011;21130;51.728;8.748;2024-02-28T00:22:45;67.78;;;34.95;;
34924;SDS011;21130;51.728;8.748;2024-02-28T00:25:12;65.35;;;32.60;;
34924;SDS011;21130;51.728;8.748;2024-02-28T00:27:40;63.70;;;33.47;;
34924;SDS011;21130;51.728;8.748;2024-02-28T00:30:06;65.03;;;33.90;;
34924;SDS011;21130;51.728;8.748;2024-02-28T00:32:33;64.38;;;32.40;;
34924;SDS011;21130;51.728;8.748;2024-02-28T00:35:00;61.55;;;32.20;;
34924;SDS011;21130;51.728;8.748;2024-02-28T00:37:26;71.13;;;34.70;;
34924;SDS011;21130;51.728;8.748;2024-02-28T00:39:52;66.85;;;35.08;;
34924;SDS011;21130;51.728;8.748;2024-02-28T00:42:19;67.18;;;33.97;;
34924;SDS011;21130;51.728;8.748;2024-02-28T00:44:47;66.97;;;34.15;;
34924;SDS011;21130;51.728;8.748;2024-02-28T00:47:13;66.13;;;33.13;;
34924;SDS011;21130;51.728;8.748;2024-02-28T00:49:40;68.53;;;34.72;;
34924;SDS011;21130;51.728;8.748;2024-02-28T00:52:06;70.78;;;34.75;;
34924;SDS011;21130;51.728;8.748;2024-02-28T00:54:32;61.17;;;34.25;;
34924;SDS011;21130;51.728;8.748;2024-02-28T00:56:59;66.45;;;33.80;;
34924;SDS011;21130;51.728;8.748;2024-02-28T00:59:25;62.83;;;33.65;;
34924;SDS011;21130;51.728;8.748;2024-02-28T01:01:53;61.75;;;33.40;;
34924;SDS011;21130;51.728;8.748;2024-02-28T01:04:20;68.75;;;34.42;;
34924;SDS011;21130;51.728;8.748;2024-02-28T01:06:46;69.03;;;33.85;;
34924;SDS011;21130;51.728;8.748;2024-02-28T01:09:13;64.28;;;32.80;;
34924;SDS011;21130;51.728;8.748;2024-02-28T01:11:39;65.82;;;33.50;;
34924;SDS011;21130;51.728;8.748;2024-02-28T01:14:05;70.95;;;35.28;;
34924;SDS011;21130;51.728;8.748;2024-02-28T01:16:32;63.25;;;32.88;;
34924;SDS011;21130;51.728;8.748;2024-02-28T01:19:00;61.15;;;32.40;;
34924;SDS011;21130;51.728;8.748;2024-02-28T01:21:26;66.90;;;33.33;;
34924;SDS011;21130;51.728;8.748;2024-02-28T01:23:54;70.07;;;35.28;;
34924;SDS011;21130;51.728;8.748;2024-02-28T01:26:20;62.30;;;32.22;;
34924;SDS011;21130;51.728;8.748;2024-02-28T01:28:47;61.13;;;32.58;;
34924;SDS011;21130;51.728;8.748;2024-02-28T01:31:14;66.57;;;31.10;;
34924;SDS011;21130;51.728;8.748;2024-02-28T01:33:40;63.60;;;31.40;;
34924;SDS011;21130;51.728;8.748;2024-02-28T01:36:08;69.13;;;34.42;;
34924;SDS011;21130;51.728;8.748;2024-02-28T01:38:35;63.70;;;32.95;;
34924;SDS011;21130;51.728;8.748;2024-02-28T01:41:01;64.55;;;33.00;;
34924;SDS011;21130;51.728;8.748;2024-02-28T01:43:29;68.90;;;34.35;;
34924;SDS011;21130;51.728;8.748;2024-02-28T01:45:55;64.18;;;33.63;;
34924;SDS011;21130;51.728;8.748;2024-02-28T01:48:21;66.47;;;32.38;;
34924;SDS011;21130;51.728;8.748;2024-02-28T01:50:48;69.75;;;34.22;;
34924;SDS011;21130;51.728;8.748;2024-02-28T01:53:16;68.13;;;34.20;;
34924;SDS011;21130;51.728;8.748;2024-02-28T01:55:42;65.18;;;33.67;;
34924;SDS011;21130;51.728;8.748;2024-02-28T01:58:09;59.22;;;31.95;;
34924;SDS011;21130;51.728;8.748;2024-02-28T02:00:36;65.72;;;32.88;;
34924;SDS011;21130;51.728;8.748;2024-02-28T02:03:03;68.45;;;34.55;;
34924;SDS011;21130;51.728;8.748;2024-02-28T02:05:30;65.93;;;33.90;;
34924;SDS011;21130;51.728;8.748;2024-02-28T02:07:56;63.20;;;31.63;;
34924;SDS011;21130;51.728;8.748;2024-02-28T02:10:25;60.97;;;32.85;;
34924;SDS011;21130;51.728;8.748;2024-02-28T02:12:51;63.15;;;32.10;;
34924;SDS011;21130;51.728;8.748;2024-02-28T02:15:18;65.80;;;32.25;;
34924;SDS011;21130;51.728;8.748;2024-02-28T02:17:44;64.85;;;32.88;;
34924;SDS011;21130;51.728;8.748;2024-02-28T02:20:11;64.07;;;32.40;;
34924;SDS011;21130;51.728;8.748;2024-02-28T02:22:41;64.03;;;32.13;;
34924;SDS011;21130;51.728;8.748;2024-02-28T02:25:08;59.08;;;30.90;;
34924;SDS011;21130;51.728;8.748;2024-02-28T02:27:39;57.17;;;30.95;;
34924;SDS011;21130;51.728;8.748;2024-02-28T02:30:06;64.25;;;32.38;;
34924;SDS011;21130;51.728;8.748;2024-02-28T02:32:33;61.78;;;31.92;;
34924;SDS011;21130;51.728;8.748;2024-02-28T02:34:59;64.57;;;32.28;;
34924;SDS011;21130;51.728;8.748;2024-02-28T02:37:26;67.40;;;34.13;;
34924;SDS011;21130;51.728;8.748;2024-02-28T02:39:53;69.28;;;32.78;;
34924;SDS011;21130;51.728;8.748;2024-02-28T02:42:20;68.22;;;32.63;;
34924;SDS011;21130;51.728;8.748;2024-02-28T02:44:47;64.85;;;31.90;;
34924;SDS011;21130;51.728;8.748;2024-02-28T02:47:13;64.97;;;32.65;;
34924;SDS011;21130;51.728;8.748;2024-02-28T02:49:39;67.05;;;32.78;;
34924;SDS011;21130;51.728;8.748;2024-02-28T02:52:06;63.85;;;32.72;;
34924;SDS011;21130;51.728;8.748;2024-02-28T02:54:32;71.85;;;33.88;;
34924;SDS011;21130;51.728;8.748;2024-02-28T02:57:00;70.38;;;33.25;;
34924;SDS011;21130;51.728;8.748;2024-02-28T02:59:26;63.65;;;32.47;;
34924;SDS011;21130;51.728;8.748;2024-02-28T03:01:53;74.13;;;35.33;;
34924;SDS011;21130;51.728;8.748;2024-02-28T03:04:19;74.65;;;34.13;;
34924;SDS011;21130;51.728;8.748;2024-02-28T03:06:46;67.30;;;34.65;;
34924;SDS011;21130;51.728;8.748;2024-02-28T03:09:12;64.60;;;33.58;;
34924;SDS011;21130;51.728;8.748;2024-02-28T03:11:39;69.57;;;34.45;;
34924;SDS011;21130;51.728;8.748;2024-02-28T03:14:06;64.90;;;32.53;;
34924;SDS011;21130;51.728;8.748;2024-02-28T03:16:33;68.18;;;34.42;;
34924;SDS011;21130;51.728;8.748;2024-02-28T03:19:02;73.22;;;35.45;;
34924;SDS011;21130;51.728;8.748;2024-02-28T03:21:29;74.25;;;34.97;;
34924;SDS011;21130;51.728;8.748;2024-02-28T03:23:55;65.82;;;33.65;;
34924;SDS011;21130;51.728;8.748;2024-02-28T03:26:21;67.47;;;33.95;;
34924;SDS011;21130;51.728;8.748;2024-02-28T03:28:49;71.90;;;34.83;;
34924;SDS011;21130;51.728;8.748;2024-02-28T03:31:16;69.50;;;34.88;;
34924;SDS011;21130;51.728;8.748;2024-02-28T03:33:43;69.85;;;34.30;;
34924;SDS011;21130;51.728;8.748;2024-02-28T03:36:12;68.50;;;34.35;;
34924;SDS011;21130;51.728;8.748;2024-02-28T03:38:38;68.68;;;35.65;;
34924;SDS011;21130;51.728;8.748;2024-02-28T03:41:05;70.45;;;35.35;;
34924;SDS011;21130;51.728;8.748;2024-02-28T03:43:31;67.03;;;37.15;;
34924;SDS011;21130;51.728;8.748;2024-02-28T03:45:57;73.93;;;35.90;;
34924;SDS011;21130;51.728;8.748;2024-02-28T03:48:25;77.18;;;36.55;;
34924;SDS011;21130;51.728;8.748;2024-02-28T03:50:51;76.00;;;35.20;;
34924;SDS011;21130;51.728;8.748;2024-02-28T03:53:18;80.75;;;37.70;;
34924;SDS011;21130;51.728;8.748;2024-02-28T03:55:45;88.35;;;38.53;;
34924;SDS011;21130;51.728;8.748;2024-02-28T03:58:11;77.38;;;36.50;;
34924;SDS011;21130;51.728;8.748;2024-02-28T04:00:38;91.85;;;38.75;;
34924;SDS011;21130;51.728;8.748;2024-02-28T04:03:05;89.00;;;38.15;;
34924;SDS011;21130;51.728;8.748;2024-02-28T04:05:33;85.53;;;38.95;;
34924;SDS011;21130;51.728;8.748;2024-02-28T04:07:59;92.82;;;41.78;;
34924;SDS011;21130;51.728;8.748;2024-02-28T04:10:25;87.97;;;39.17;;
34924;SDS011;21130;51.728;8.748;2024-02-28T04:12:51;85.68;;;38.90;;
34924;SDS011;21130;51.728;8.748;2024-02-28T04:15:17;88.82;;;38.30;;
34924;SDS011;21130;51.728;8.748;2024-02-28T04:17:44;94.10;;;41.80;;
34924;SDS011;21130;51.728;8.748;2024-02-28T04:20:11;96.93;;;40.45;;
34924;SDS011;21130;51.728;8.748;2024-02-28T04:22:39;86.13;;;39.55;;
34924;SDS011;21130;51.728;8.748;2024-02-28T04:25:07;83.47;;;37.25;;
34924;SDS011;21130;51.728;8.748;2024-02-28T04:27:35;89.07;;;40.83;;
34924;SDS011;21130;51.728;8.748;2024-02-28T04:30:01;85.80;;;40.08;;
34924;SDS011;21130;51.728;8.748;2024-02-28T04:32:48;82.15;;;38.45;;
34924;SDS011;21130;51.728;8.748;2024-02-28T04:35:33;91.65;;;39.78;;
34924;SDS011;21130;51.728;8.748;2024-02-28T04:38:19;87.50;;;39.55;;
34924;SDS011;21130;51.728;8.748;2024-02-28T04:40:48;117.68;;;47.28;;
34924;SDS011;21130;51.728;8.748;2024-02-28T04:43:14;123.57;;;49.75;;
34924;SDS011;21130;51.728;8.748;2024-02-28T04:45:41;132.18;;;52.10;;
34924;SDS011;21130;51.728;8.748;2024-02-28T04:48:07;126.50;;;48.10;;
34924;SDS011;21130;51.728;8.748;2024-02-28T04:50:34;138.80;;;49.85;;
34924;SDS011;21130;51.728;8.748;2024-02-28T04:53:01;131.45;;;50.30;;
34924;SDS011;21130;51.728;8.748;2024-02-28T04:55:29;123.55;;;48.67;;
34924;SDS011;21130;51.728;8.748;2024-02-28T04:57:55;108.20;;;48.63;;
34924;SDS011;21130;51.728;8.748;2024-02-28T05:00:21;135.90;;;48.00;;
34924;SDS011;21130;51.728;8.748;2024-02-28T05:02:50;110.25;;;48.35;;
34924;SDS011;21130;51.728;8.748;2024-02-28T05:05:17;134.20;;;47.60;;
34924;SDS011;21130;51.728;8.748;2024-02-28T05:07:44;113.03;;;45.97;;
34924;SDS011;21130;51.728;8.748;2024-02-28T05:10:10;118.60;;;47.15;;
34924;SDS011;21130;51.728;8.748;2024-02-28T05:12:38;114.45;;;47.40;;
34924;SDS011;21130;51.728;8.748;2024-02-28T05:15:05;116.18;;;46.55;;
34924;SDS011;21130;51.728;8.748;2024-02-28T05:17:32;137.73;;;48.03;;
34924;SDS011;21130;51.728;8.748;2024-02-28T05:19:58;132.98;;;49.22;;
34924;SDS011;21130;51.728;8.748;2024-02-28T05:22:25;137.95;;;47.83;;
34924;SDS011;21130;51.728;8.748;2024-02-28T05:24:51;121.65;;;49.35;;
34924;SDS011;21130;51.728;8.748;2024-02-28T05:27:18;122.25;;;48.85;;
34924;SDS011;21130;51.728;8.748;2024-02-28T05:29:47;126.88;;;50.65;;
34924;SDS011;21130;51.728;8.748;2024-02-28T05:32:13;134.07;;;49.28;;
34924;SDS011;21130;51.728;8.748;2024-02-28T05:34:42;127.28;;;48.58;;
34924;SDS011;21130;51.728;8.748;2024-02-28T05:37:08;132.30;;;51.33;;
34924;SDS011;21130;51.728;8.748;2024-02-28T05:39:35;126.00;;;50.22;;
34924;SDS011;21130;51.728;8.748;2024-02-28T05:42:01;159.75;;;53.22;;
34924;SDS011;21130;51.728;8.748;2024-02-28T05:44:28;167.43;;;51.90;;
34924;SDS011;21130;51.728;8.748;2024-02-28T05:46:56;175.27;;;52.28;;
34924;SDS011;21130;51.728;8.748;2024-02-28T05:49:22;216.73;;;55.83;;
34924;SDS011;21130;51.728;8.748;2024-02-28T05:51:49;146.73;;;51.65;;
34924;SDS011;21130;51.728;8.748;2024-02-28T05:54:15;150.50;;;53.83;;
34924;SDS011;21130;51.728;8.748;2024-02-28T05:56:42;148.85;;;51.72;;
34924;SDS011;21130;51.728;8.748;2024-02-28T05:59:08;161.32;;;54.00;;
34924;SDS011;21130;51.728;8.748;2024-02-28T06:01:35;143.55;;;50.80;;
34924;SDS011;21130;51.728;8.748;2024-02-28T06:04:04;157.95;;;51.22;;
34924;SDS011;21130;51.728;8.748;2024-02-28T06:06:31;125.68;;;48.20;;
34924;SDS011;21130;51.728;8.748;2024-02-28T06:08:57;173.95;;;51.55;;
34924;SDS011;21130;51.728;8.748;2024-02-28T06:11:23;130.10;;;49.05;;
34924;SDS011;21130;51.728;8.748;2024-02-28T06:13:50;139.43;;;51.00;;
34924;SDS011;21130;51.728;8.748;2024-02-28T06:16:17;137.90;;;51.33;;
34924;SDS011;21130;51.728;8.748;2024-02-28T06:18:43;133.00;;;49.40;;
34924;SDS011;21130;51.728;8.748;2024-02-28T06:21:12;137.85;;;50.50;;
34924;SDS011;21130;51.728;8.748;2024-02-28T06:23:39;130.65;;;50.20;;
34924;SDS011;21130;51.728;8.748;2024-02-28T06:26:05;130.10;;;49.03;;
34924;SDS011;21130;51.728;8.748;2024-02-28T06:28:32;136.85;;;50.67;;
34924;SDS011;21130;51.728;8.748;2024-02-28T06:30:58;130.25;;;49.00;;
34924;SDS011;21130;51.728;8.748;2024-02-28T06:33:24;124.00;;;50.50;;
34924;SDS011;21130;51.728;8.748;2024-02-28T06:35:50;121.05;;;49.20;;
34924;SDS011;21130;51.728;8.748;2024-02-28T06:38:18;136.10;;;50.67;;
34924;SDS011;21130;51.728;8.748;2024-02-28T06:40:45;133.90;;;49.72;;
34924;SDS011;21130;51.728;8.748;2024-02-28T06:43:12;133.43;;;51.13;;
34924;SDS011;21130;51.728;8.748;2024-02-28T06:45:38;127.55;;;49.95;;
34924;SDS011;21130;51.728;8.748;2024-02-28T06:48:05;128.43;;;49.80;;
34924;SDS011;21130;51.728;8.748;2024-02-28T06:50:33;147.20;;;50.97;;
34924;SDS011;21130;51.728;8.748;2024-02-28T06:52:59;126.80;;;50.13;;
34924;SDS011;21130;51.728;8.748;2024-02-28T06:55:27;126.68;;;49.50;;
34924;SDS011;21130;51.728;8.748;2024-02-28T06:57:53;117.40;;;47.40;;
34924;SDS011;21130;51.728;8.748;2024-02-28T07:00:20;116.18;;;48.85;;
34924;SDS011;21130;51.728;8.748;2024-02-28T07:02:47;109.60;;;45.97;;
34924;SDS011;21130;51.728;8.748;2024-02-28T07:05:14;107.55;;;47.08;;
34924;SDS011;21130;51.728;8.748;2024-02-28T07:07:41;114.28;;;46.95;;
34924;SDS011;21130;51.728;8.748;2024-02-28T07:10:07;121.03;;;48.33;;
34924;SDS011;21130;51.728;8.748;2024-02-28T07:12:36;109.82;;;47.17;;
34924;SDS011;21130;51.728;8.748;2024-02-28T07:15:02;102.53;;;45.75;;
34924;SDS011;21130;51.728;8.748;2024-02-28T07:17:31;96.10;;;44.28;;
34924;SDS011;21130;51.728;8.748;2024-02-28T07:19:58;100.10;;;44.92;;
34924;SDS011;21130;51.728;8.748;2024-02-28T07:22:24;99.18;;;45.50;;
34924;SDS011;21130;51.728;8.748;2024-02-28T07:24:51;105.93;;;46.22;;
34924;SDS011;21130;51.728;8.748;2024-02-28T07:27:17;106.55;;;45.28;;
34924;SDS011;21130;51.728;8.748;2024-02-28T07:29:45;96.65;;;44.25;;
34924;SDS011;21130;51.728;8.748;2024-02-28T07:32:12;98.97;;;44.00;;
34924;SDS011;21130;51.728;8.748;2024-02-28T07:34:38;96.78;;;45.30;;
34924;SDS011;21130;51.728;8.748;2024-02-28T07:37:05;106.78;;;45.45;;
34924;SDS011;21130;51.728;8.748;2024-02-28T07:39:31;113.07;;;46.20;;
34924;SDS011;21130;51.728;8.748;2024-02-28T07:42:18;114.20;;;47.10;;
34924;SDS011;21130;51.728;8.748;2024-02-28T07:45:05;118.78;;;45.90;;
34924;SDS011;21130;51.728;8.748;2024-02-28T07:47:33;105.10;;;44.50;;
34924;SDS011;21130;51.728;8.748;2024-02-28T07:50:00;112.28;;;45.83;;
34924;SDS011;21130;51.728;8.748;2024-02-28T07:52:26;104.65;;;44.25;;
34924;SDS011;21130;51.728;8.748;2024-02-28T07:54:53;98.95;;;42.65;;
34924;SDS011;21130;51.728;8.748;2024-02-28T07:57:19;93.35;;;43.38;;
34924;SDS011;21130;51.728;8.748;2024-02-28T07:59:46;97.68;;;42.80;;
34924;SDS011;21130;51.728;8.748;2024-02-28T08:02:13;96.25;;;44.08;;
34924;SDS011;21130;51.728;8.748;2024-02-28T08:04:40;104.43;;;46.20;;
34924;SDS011;21130;51.728;8.748;2024-02-28T08:07:07;99.57;;;44.33;;
34924;SDS011;21130;51.728;8.748;2024-02-28T08:09:33;96.18;;;44.20;;
34924;SDS011;21130;51.728;8.748;2024-02-28T08:12:00;95.18;;;43.05;;
34924;SDS011;21130;51.728;8.748;2024-02-28T08:14:27;94.38;;;42.70;;
34924;SDS011;21130;51.728;8.748;2024-02-28T08:16:53;90.38;;;41.70;;
34924;SDS011;21130;51.728;8.748;2024-02-28T08:19:21;93.35;;;41.60;;
34924;SDS011;21130;51.728;8.748;2024-02-28T08:21:48;93.82;;;43.08;;
34924;SDS011;21130;51.728;8.748;2024-02-28T08:24:15;92.25;;;43.13;;
34924;SDS011;21130;51.728;8.748;2024-02-28T08:26:41;95.43;;;44.58;;
34924;SDS011;21130;51.728;8.748;2024-02-28T08:29:08;85.60;;;41.15;;
34924;SDS011;21130;51.728;8.748;2024-02-28T08:31:39;96.45;;;42.58;;
34924;SDS011;21130;51.728;8.748;2024-02-28T08:34:06;91.60;;;42.28;;
34924;SDS011;21130;51.728;8.748;2024-02-28T08:36:35;91.25;;;42.15;;
34924;SDS011;21130;51.728;8.748;2024-02-28T08:39:01;88.75;;;42.40;;
34924;SDS011;21130;51.728;8.748;2024-02-28T08:41:30;92.78;;;42.88;;
34924;SDS011;21130;51.728;8.748;2024-02-28T08:43:57;95.60;;;45.13;;
34924;SDS011;21130;51.728;8.748;2024-02-28T08:46:24;91.05;;;40.72;;
34924;SDS011;21130;51.728;8.748;2024-02-28T08:48:50;94.15;;;43.22;;
34924;SDS011;21130;51.728;8.748;2024-02-28T08:51:17;89.55;;;44.88;;
34924;SDS011;21130;51.728;8.748;2024-02-28T08:53:45;91.72;;;44.30;;
34924;SDS011;21130;51.728;8.748;2024-02-28T08:56:11;86.45;;;43.17;;
34924;SDS011;21130;51.728;8.748;2024-02-28T08:58:38;88.97;;;42.70;;
34924;SDS011;21130;51.728;8.748;2024-02-28T09:01:05;83.15;;;42.75;;
34924;SDS011;21130;51.728;8.748;2024-02-28T09:03:31;86.72;;;42.95;;
34924;SDS011;21130;51.728;8.748;2024-02-28T09:05:58;78.30;;;42.10;;
34924;SDS011;21130;51.728;8.748;2024-02-28T09:08:24;84.50;;;42.90;;
34924;SDS011;21130;51.728;8.748;2024-02-28T09:10:52;77.07;;;40.03;;
34924;SDS011;21130;51.728;8.748;2024-02-28T09:13:19;78.65;;;40.10;;
34924;SDS011;21130;51.728;8.748;2024-02-28T09:15:45;70.22;;;37.85;;
34924;SDS011;21130;51.728;8.748;2024-02-28T09:18:12;70.38;;;38.00;;
34924;SDS011;21130;51.728;8.748;2024-02-28T09:20:38;67.32;;;38.63;;
34924;SDS011;21130;51.728;8.748;2024-02-28T09:23:05;67.03;;;38.10;;
34924;SDS011;21130;51.728;8.748;2024-02-28T09:25:31;64.07;;;37.35;;
34924;SDS011;21130;51.728;8.748;2024-02-28T09:28:01;62.47;;;35.03;;
34924;SDS011;21130;51.728;8.748;2024-02-28T09:30:28;56.33;;;33.60;;
34924;SDS011;21130;51.728;8.748;2024-02-28T09:32:54;54.55;;;34.40;;
34924;SDS011;21130;51.728;8.748;2024-02-28T09:35:21;58.00;;;34.92;;
34924;SDS011;21130;51.728;8.748;2024-02-28T09:37:47;53.15;;;33.47;;
34924;SDS011;21130;51.728;8.748;2024-02-28T09:40:14;51.88;;;32.33;;
34924;SDS011;21130;51.728;8.748;2024-02-28T09:42:41;51.55;;;32.83;;
34924;SDS011;21130;51.728;8.748;2024-02-28T09:45:09;51.38;;;32.58;;
34924;SDS011;21130;51.728;8.748;2024-02-28T09:47:38;49.22;;;31.92;;
34924;SDS011;21130;51.728;8.748;2024-02-28T09:50:05;54.38;;;34.13;;
34924;SDS011;21130;51.728;8.748;2024-02-28T09:52:34;49.80;;;32.72;;
34924;SDS011;21130;51.728;8.748;2024-02-28T09:55:01;51.95;;;35.00;;
34924;SDS011;21130;51.728;8.748;2024-02-28T09:57:27;52.30;;;34.72;;
34924;SDS011;21130;51.728;8.748;2024-02-28T09:59:55;48.17;;;33.83;;
34924;SDS011;21130;51.728;8.748;2024-02-28T10:02:25;49.22;;;34.55;;
34924;SDS011;21130;51.728;8.748;2024-02-28T10:04:53;49.33;;;33.78;;
34924;SDS011;21130;51.728;8.748;2024-02-28T10:07:22;55.83;;;35.92;;
34924;SDS011;21130;51.728;8.748;2024-02-28T10:09:49;54.75;;;35.90;;
34924;SDS011;21130;51.728;8.748;2024-02-28T10:12:20;59.22;;;36.92;;
34924;SDS011;21130;51.728;8.748;2024-02-28T10:14:48;54.22;;;34.50;;
34924;SDS011;21130;51.728;8.748;2024-02-28T10:17:16;49.38;;;34.28;;
34924;SDS011;21130;51.728;8.748;2024-02-28T10:19:44;50.72;;;33.65;;
34924;SDS011;21130;51.728;8.748;2024-02-28T10:22:10;52.30;;;35.05;;
34924;SDS011;21130;51.728;8.748;2024-02-28T10:24:36;52.83;;;33.28;;
34924;SDS011;21130;51.728;8.748;2024-02-28T10:27:04;52.35;;;34.17;;
34924;SDS011;21130;51.728;8.748;2024-02-28T10:29:30;49.00;;;33.10;;
34924;SDS011;21130;51.728;8.748;2024-02-28T10:31:57;53.97;;;34.65;;
34924;SDS011;21130;51.728;8.748;2024-02-28T10:34:24;56.08;;;36.15;;
34924;SDS011;21130;51.728;8.748;2024-02-28T10:36:52;53.30;;;33.95;;
34924;SDS011;21130;51.728;8.748;2024-02-28T10:39:18;52.10;;;33.25;;
34924;SDS011;21130;51.728;8.748;2024-02-28T10:41:47;49.75;;;34.90;;
34924;SDS011;21130;51.728;8.748;2024-02-28T10:44:16;50.17;;;34.42;;
34924;SDS011;21130;51.728;8.748;2024-02-28T10:46:43;51.13;;;34.78;;
34924;SDS011;21130;51.728;8.748;2024-02-28T10:49:12;50.10;;;34.88;;
34924;SDS011;21130;51.728;8.748;2024-02-28T10:51:39;52.60;;;36.03;;
34924;SDS011;21130;51.728;8.748;2024-02-28T10:54:12;55.30;;;37.60;;
34924;SDS011;21130;51.728;8.748;2024-02-28T10:56:39;55.78;;;37.05;;
34924;SDS011;21130;51.728;8.748;2024-02-28T10:59:07;56.28;;;37.67;;
34924;SDS011;21130;51.728;8.748;2024-02-28T11:01:34;56.72;;;38.05;;
34924;SDS011;21130;51.728;8.748;2024-02-28T11:04:02;57.40;;;39.42;;
34924;SDS011;21130;51.728;8.748;2024-02-28T11:06:29;61.75;;;40.20;;
34924;SDS011;21130;51.728;8.748;2024-02-28T11:08:55;55.63;;;37.53;;
34924;SDS011;21130;51.728;8.748;2024-02-28T11:11:29;60.30;;;38.97;;
34924;SDS011;21130;51.728;8.748;2024-02-28T11:13:56;57.33;;;38.28;;
34924;SDS011;21130;51.728;8.748;2024-02-28T11:25:46;60.28;;;39.63;;
34924;SDS011;21130;51.728;8.748;2024-02-28T11:28:14;63.03;;;41.22;;
34924;SDS011;21130;51.728;8.748;2024-02-28T11:30:41;63.65;;;43.03;;
34924;SDS011;21130;51.728;8.748;2024-02-28T11:33:08;62.83;;;41.38;;
34924;SDS011;21130;51.728;8.748;2024-02-28T11:35:34;61.80;;;41.00;;
34924;SDS011;21130;51.728;8.748;2024-02-28T11:38:01;61.53;;;42.67;;
34924;SDS011;21130;51.728;8.748;2024-02-28T11:40:27;65.35;;;43.53;;
34924;SDS011;21130;51.728;8.748;2024-02-28T11:42:54;68.03;;;43.55;;
34924;SDS011;21130;51.728;8.748;2024-02-28T11:45:22;68.82;;;43.30;;
34924;SDS011;21130;51.728;8.748;2024-02-28T11:47:50;61.83;;;41.25;;
34924;SDS011;21130;51.728;8.748;2024-02-28T11:50:17;64.85;;;42.10;;
34924;SDS011;21130;51.728;8.748;2024-02-28T11:52:44;61.95;;;41.70;;
34924;SDS011;21130;51.728;8.748;2024-02-28T11:55:10;61.67;;;40.67;;
34924;SDS011;21130;51.728;8.748;2024-02-28T11:57:38;63.65;;;41.05;;
34924;SDS011;21130;51.728;8.748;2024-02-28T12:00:05;64.07;;;42.63;;
34924;SDS011;21130;51.728;8.748;2024-02-28T12:02:35;64.05;;;41.88;;
34924;SDS011;21130;51.728;8.748;2024-02-28T12:05:02;64.20;;;41.90;;
34924;SDS011;21130;51.728;8.748;2024-02-28T12:07:29;67.10;;;42.50;;
34924;SDS011;21130;51.728;8.748;2024-02-28T12:09:55;62.15;;;39.90;;
34924;SDS011;21130;51.728;8.748;2024-02-28T12:12:22;55.78;;;38.38;;
34924;SDS011;21130;51.728;8.748;2024-02-28T12:14:50;62.97;;;41.38;;
34924;SDS011;21130;51.728;8.748;2024-02-28T12:17:16;62.08;;;40.13;;
34924;SDS011;21130;51.728;8.748;2024-02-28T12:19:45;64.88;;;39.47;;
34924;SDS011;21130;51.728;8.748;2024-02-28T12:22:11;59.05;;;40.08;;
34924;SDS011;21130;51.728;8.748;2024-02-28T12:24:38;61.72;;;39.95;;
34924;SDS011;21130;51.728;8.748;2024-02-28T12:27:04;56.03;;;37.00;;
34924;SDS011;21130;51.728;8.748;2024-02-28T12:29:31;53.67;;;34.78;;
34924;SDS011;21130;51.728;8.748;2024-02-28T12:31:58;51.83;;;35.47;;
34924;SDS011;21130;51.728;8.748;2024-02-28T12:34:24;52.17;;;36.30;;
34924;SDS011;21130;51.728;8.748;2024-02-28T12:36:53;54.88;;;38.03;;
34924;SDS011;21130;51.728;8.748;2024-02-28T12:39:20;55.40;;;37.90;;
34924;SDS011;21130;51.728;8.748;2024-02-28T12:41:47;53.65;;;36.45;;
34924;SDS011;21130;51.728;8.748;2024-02-28T12:44:14;57.35;;;38.50;;
34924;SDS011;21130;51.728;8.748;2024-02-28T12:46:40;52.30;;;36.25;;
34924;SDS011;21130;51.728;8.748;2024-02-28T12:49:07;54.63;;;36.67;;
34924;SDS011;21130;51.728;8.748;2024-02-28T12:51:38;53.15;;;36.50;;
34924;SDS011;21130;51.728;8.748;2024-02-28T12:54:07;54.30;;;37.38;;
34924;SDS011;21130;51.728;8.748;2024-02-28T12:56:34;53.38;;;37.03;;
34924;SDS011;21130;51.728;8.748;2024-02-28T12:59:01;52.97;;;36.65;;
34924;SDS011;21130;51.728;8.748;2024-02-28T13:01:32;49.92;;;36.33;;
34924;SDS011;21130;51.728;8.748;2024-02-28T13:03:59;50.83;;;36.53;;
34924;SDS011;21130;51.728;8.748;2024-02-28T13:06:25;50.65;;;35.28;;
34924;SDS011;21130;51.728;8.748;2024-02-28T13:08:52;52.08;;;36.05;;
34924;SDS011;21130;51.728;8.748;2024-02-28T13:11:21;51.88;;;36.70;;
34924;SDS011;21130;51.728;8.748;2024-02-28T13:13:48;51.95;;;36.63;;
34924;SDS011;21130;51.728;8.748;2024-02-28T13:16:16;53.92;;;36.38;;
34924;SDS011;21130;51.728;8.748;2024-02-28T13:18:43;52.67;;;37.42;;
34924;SDS011;21130;51.728;8.748;2024-02-28T13:21:10;51.42;;;35.53;;
34924;SDS011;21130;51.728;8.748;2024-02-28T13:23:37;47.95;;;34.20;;
34924;SDS011;21130;51.728;8.748;2024-02-28T13:26:04;48.67;;;35.33;;
34924;SDS011;21130;51.728;8.748;2024-02-28T13:28:33;49.08;;;34.92;;
34924;SDS011;21130;51.728;8.748;2024-02-28T13:31:00;47.22;;;35.13;;
34924;SDS011;21130;51.728;8.748;2024-02-28T13:33:29;44.20;;;32.45;;
34924;SDS011;21130;51.728;8.748;2024-02-28T13:35:55;47.00;;;33.83;;
34924;SDS011;21130;51.728;8.748;2024-02-28T13:38:22;51.88;;;35.95;;
34924;SDS011;21130;51.728;8.748;2024-02-28T13:40:48;52.13;;;36.85;;
34924;SDS011;21130;51.728;8.748;2024-02-28T13:43:16;48.90;;;34.28;;
34924;SDS011;21130;51.728;8.748;2024-02-28T13:45:46;49.13;;;35.15;;
34924;SDS011;21130;51.728;8.748;2024-02-28T13:48:15;48.20;;;34.50;;
34924;SDS011;21130;51.728;8.748;2024-02-28T13:50:43;47.65;;;34.85;;
34924;SDS011;21130;51.728;8.748;2024-02-28T13:53:10;46.92;;;34.92;;
34924;SDS011;21130;51.728;8.748;2024-02-28T13:55:37;50.78;;;35.08;;
34924;SDS011;21130;51.728;8.748;2024-02-28T13:58:04;45.35;;;33.00;;
34924;SDS011;21130;51.728;8.748;2024-02-28T14:00:30;43.20;;;33.15;;
34924;SDS011;21130;51.728;8.748;2024-02-28T14:03:00;47.80;;;35.45;;
34924;SDS011;21130;51.728;8.748;2024-02-28T14:05:27;44.17;;;32.97;;
34924;SDS011;21130;51.728;8.748;2024-02-28T14:07:54;43.95;;;33.05;;
34924;SDS011;21130;51.728;8.748;2024-02-28T14:10:20;47.13;;;34.47;;
34924;SDS011;21130;51.728;8.748;2024-02-28T14:12:47;44.53;;;32.22;;
34924;SDS011;21130;51.728;8.748;2024-02-28T14:15:14;44.80;;;33.10;;
34924;SDS011;21130;51.728;8.748;2024-02-28T14:17:41;44.80;;;33.03;;
34924;SDS011;21130;51.728;8.748;2024-02-28T14:20:10;46.53;;;35.22;;
34924;SDS011;21130;51.728;8.748;2024-02-28T14:22:37;46.85;;;33.53;;
34924;SDS011;21130;51.728;8.748;2024-02-28T14:25:07;45.33;;;33.70;;
34924;SDS011;21130;51.728;8.748;2024-02-28T14:27:34;45.25;;;32.85;;